Time;durP1;ratioP1;P1;durP2;ratioP2;P2;SDS_P1;SDS_P2;PMS_P1;PMS_P2;Temp;Humidity;BMP_temperature;BMP_pressure;BME280_temperature;BME280_humidity;BME280_pressure;Samples;Min_cycle;Max_cycle;Signal;HPM_P1;HPM_P2
2022/07/09 00:01:28;;;;;;;5.57;3.57;;;18.20;99.90;;;;;;5079321;28;20557;-82
2022/07/09 00:06:58;;;;;;;7.00;3.40;;;18.20;99.90;;;;;;5082270;28;20484;-82
2022/07/09 00:09:25;;;;;;;7.40;3.50;;;18.20;99.90;;;;;;5108438;28;20497;-82
2022/07/09 00:11:52;;;;;;;5.93;3.30;;;18.10;99.90;;;;;;5112516;28;20928;-82
2022/07/09 00:14:23;;;;;;;6.20;3.17;;;18.10;99.90;;;;;;5079339;28;20478;-79
2022/07/09 00:16:52;;;;;;;5.90;3.70;;;18.10;99.90;;;;;;5080289;28;20477;-82
2022/07/09 00:19:19;;;;;;;5.17;3.27;;;18.10;99.90;;;;;;5094054;28;20487;-81
2022/07/09 00:21:49;;;;;;;5.73;2.93;;;18.00;99.90;;;;;;5083869;28;20898;-81
2022/07/09 00:24:17;;;;;;;7.20;2.97;;;18.00;99.90;;;;;;5081774;28;21024;-81
2022/07/09 00:26:44;;;;;;;4.60;3.43;;;18.00;99.90;;;;;;5082696;28;20577;-81
2022/07/09 00:29:13;;;;;;;7.50;3.20;;;18.00;99.90;;;;;;5091054;28;20455;-79
2022/07/09 00:31:40;;;;;;;5.27;3.53;;;17.90;99.90;;;;;;5093469;28;20456;-82
2022/07/09 00:34:10;;;;;;;4.50;3.10;;;17.90;99.90;;;;;;5085870;28;20457;-81
2022/07/09 00:36:37;;;;;;;5.57;3.47;;;17.90;99.90;;;;;;5087930;28;20480;-80
2022/07/09 00:39:04;;;;;;;6.50;3.20;;;17.90;99.90;;;;;;5093220;28;20547;-81
2022/07/09 00:41:32;;;;;;;4.97;3.40;;;17.80;99.90;;;;;;5082283;28;20546;-81
2022/07/09 00:43:59;;;;;;;4.20;2.87;;;17.80;99.90;;;;;;5077261;28;20546;-81
2022/07/09 00:46:29;;;;;;;4.93;3.23;;;17.70;99.90;;;;;;5092136;28;20558;-81
2022/07/09 00:48:56;;;;;;;6.27;3.40;;;17.70;99.90;;;;;;5092096;28;20548;-82
2022/07/09 00:51:23;;;;;;;5.40;3.70;;;17.70;99.90;;;;;;5081065;28;20458;-81
2022/07/09 00:53:51;;;;;;;5.23;3.10;;;17.70;99.90;;;;;;5072520;28;20949;-81
2022/07/09 00:56:18;;;;;;;3.60;3.13;;;17.70;99.90;;;;;;5073231;28;21032;-82
2022/07/09 00:58:50;;;;;;;7.40;3.90;;;17.70;99.90;;;;;;5073830;28;20483;-81
2022/07/09 01:01:18;;;;;;;7.30;3.57;;;17.60;99.90;;;;;;5084322;28;20541;-81
2022/07/09 01:03:50;;;;;;;4.90;3.17;;;17.60;99.90;;;;;;5092793;28;20544;-81
2022/07/09 01:06:17;;;;;;;5.10;3.50;;;17.60;99.90;;;;;;5083549;28;20564;-81
2022/07/09 01:08:50;;;;;;;6.57;3.30;;;17.50;99.90;;;;;;5073295;28;20544;-82
2022/07/09 01:11:17;;;;;;;7.63;4.00;;;17.60;99.90;;;;;;5082101;28;20450;-81
2022/07/09 01:13:46;;;;;;;5.83;3.57;;;17.50;99.90;;;;;;5092853;28;20549;-83
2022/07/09 01:16:16;;;;;;;4.53;3.70;;;17.50;99.90;;;;;;5073766;28;20523;-82
2022/07/09 01:18:48;;;;;;;5.40;3.50;;;17.50;99.90;;;;;;5072890;28;20485;-82
2022/07/09 01:21:16;;;;;;;4.80;3.33;;;17.40;99.90;;;;;;5080535;28;20540;-83
2022/07/09 01:23:43;;;;;;;4.73;3.27;;;17.40;99.90;;;;;;5072981;28;20466;-82
2022/07/09 01:26:10;;;;;;;5.60;3.43;;;17.40;99.90;;;;;;5090070;28;20536;-81
2022/07/09 01:28:49;;;;;;;4.60;3.43;;;17.40;99.90;;;;;;5085776;28;20557;-81
2022/07/09 01:31:21;;;;;;;5.03;3.23;;;17.40;99.90;;;;;;5072943;28;20534;-83
2022/07/09 01:33:51;;;;;;;6.43;3.90;;;17.30;99.90;;;;;;5080120;28;20878;-81
2022/07/09 01:36:19;;;;;;;4.20;3.50;;;17.30;99.90;;;;;;5092426;28;20554;-82
2022/07/09 01:38:46;;;;;;;4.93;3.43;;;17.30;99.90;;;;;;5091790;28;20459;-82
2022/07/09 01:41:13;;;;;;;6.57;3.37;;;17.30;99.90;;;;;;5093207;28;20555;-83
2022/07/09 01:43:39;;;;;;;5.90;3.57;;;17.30;99.90;;;;;;5077012;28;20530;-83
2022/07/09 01:46:06;;;;;;;4.20;3.80;;;17.30;99.90;;;;;;5092979;28;20475;-81
2022/07/09 01:48:36;;;;;;;5.20;4.10;;;17.30;99.90;;;;;;5075810;28;20583;-80
2022/07/09 01:51:03;;;;;;;6.87;4.30;;;17.30;99.90;;;;;;5074296;28;20461;-82
2022/07/09 01:53:33;;;;;;;6.30;4.13;;;17.20;99.90;;;;;;5077848;28;20556;-79
2022/07/09 01:56:04;;;;;;;5.10;3.80;;;17.20;99.90;;;;;;5077902;28;20481;-80
2022/07/09 01:58:31;;;;;;;6.40;4.40;;;17.20;99.90;;;;;;5097448;28;20542;-80
2022/07/09 02:00:58;;;;;;;5.80;4.13;;;17.20;99.90;;;;;;5093668;28;20460;-80
2022/07/09 02:03:24;;;;;;;7.30;4.13;;;17.20;99.90;;;;;;5076214;28;21005;-80
2022/07/09 02:05:51;;;;;;;6.00;4.57;;;17.20;99.90;;;;;;5078748;28;20916;-80
2022/07/09 02:08:18;;;;;;;6.60;3.50;;;17.20;99.90;;;;;;5092371;28;20534;-81
2022/07/09 02:10:46;;;;;;;6.50;3.97;;;17.10;99.90;;;;;;5087930;28;20833;-80
2022/07/09 02:13:13;;;;;;;6.50;3.70;;;17.10;99.90;;;;;;5095470;28;20481;-82
2022/07/09 02:15:40;;;;;;;5.30;4.13;;;17.10;99.90;;;;;;5086123;28;20508;-81
2022/07/09 02:18:07;;;;;;;5.40;3.80;;;17.20;99.90;;;;;;5076624;28;20555;-82
2022/07/09 02:20:34;;;;;;;6.97;3.80;;;17.20;99.90;;;;;;5085217;28;20536;-79
2022/07/09 02:23:01;;;;;;;4.20;3.27;;;17.20;99.90;;;;;;5096289;28;20940;-81
2022/07/09 02:25:28;;;;;;;11.00;4.60;;;17.30;99.90;;;;;;5078428;28;20489;-81
2022/07/09 02:27:56;;;;;;;4.90;3.50;;;17.20;99.90;;;;;;5077126;28;20472;-80
2022/07/09 02:30:23;;;;;;;5.20;3.70;;;17.30;99.90;;;;;;5093884;28;20533;-82
2022/07/09 02:32:50;;;;;;;10.00;3.77;;;17.30;99.90;;;;;;5096629;28;20536;-81
2022/07/09 02:35:17;;;;;;;7.97;4.33;;;17.30;99.90;;;;;;5081306;28;20505;-81
2022/07/09 02:37:44;;;;;;;7.10;5.07;;;17.30;99.90;;;;;;5077598;28;20535;-83
2022/07/09 02:40:14;;;;;;;6.40;4.57;;;17.40;99.90;;;;;;5076545;28;20656;-80
2022/07/09 02:42:41;;;;;;;5.73;4.40;;;17.40;99.90;;;;;;5082321;28;20848;-81
2022/07/09 02:45:10;;;;;;;7.53;3.80;;;17.40;99.90;;;;;;5077023;28;20446;-82
2022/07/09 02:47:37;;;;;;;6.00;4.73;;;17.40;99.90;;;;;;5084476;28;20534;-81
2022/07/09 02:50:04;;;;;;;6.20;4.37;;;17.50;99.90;;;;;;5095167;28;20479;-83
2022/07/09 02:52:31;;;;;;;5.53;4.43;;;17.50;99.90;;;;;;5084625;28;20894;-81
2022/07/09 02:54:58;;;;;;;6.50;4.20;;;17.50;99.90;;;;;;5076486;28;20482;-79
2022/07/09 02:57:24;;;;;;;7.63;4.67;;;17.50;99.90;;;;;;5089468;28;20529;-81
2022/07/09 02:59:51;;;;;;;7.87;4.47;;;17.50;99.90;;;;;;5078833;28;20462;-80
2022/07/09 03:02:20;;;;;;;8.57;4.70;;;17.50;99.90;;;;;;5105843;23;20523;-81
2022/07/09 03:04:47;;;;;;;5.47;4.37;;;17.50;99.90;;;;;;5084738;28;20997;-81
2022/07/09 03:07:14;;;;;;;5.83;4.30;;;17.50;99.90;;;;;;5086988;28;20815;-82
2022/07/09 03:09:41;;;;;;;6.57;4.07;;;17.50;99.90;;;;;;5087979;28;20444;-79
2022/07/09 03:12:08;;;;;;;7.50;5.77;;;17.50;99.90;;;;;;5099791;28;20467;-80
2022/07/09 03:14:35;;;;;;;5.73;4.73;;;17.50;99.90;;;;;;5102750;28;20483;-81
2022/07/09 03:17:02;;;;;;;7.20;5.20;;;17.60;99.90;;;;;;5105506;28;20551;-81
2022/07/09 03:19:30;;;;;;;7.23;5.67;;;17.60;99.90;;;;;;5098142;28;20467;-80
2022/07/09 03:21:57;;;;;;;6.77;5.43;;;17.60;99.90;;;;;;5088161;28;20868;-81
2022/07/09 03:24:24;;;;;;;6.80;5.67;;;17.60;99.90;;;;;;5088084;28;20458;-82
2022/07/09 03:26:51;;;;;;;8.27;5.40;;;17.70;99.90;;;;;;5088874;28;20982;-80
2022/07/09 03:29:17;;;;;;;10.20;6.70;;;17.70;99.90;;;;;;5092578;28;20472;-84
2022/07/09 03:31:44;;;;;;;6.80;5.67;;;17.70;99.90;;;;;;5087805;28;20505;-82
2022/07/09 03:34:11;;;;;;;8.10;5.70;;;17.70;99.90;;;;;;5095277;28;20463;-81
2022/07/09 03:36:39;;;;;;;6.10;4.90;;;17.80;99.90;;;;;;5101685;28;22006;-81
2022/07/09 03:39:06;;;;;;;7.00;5.27;;;17.80;99.90;;;;;;5086236;28;20453;-81
2022/07/09 03:41:33;;;;;;;9.40;5.80;;;17.80;99.90;;;;;;5089629;28;20473;-82
2022/07/09 03:44:00;;;;;;;10.87;5.90;;;17.80;99.90;;;;;;5087905;28;20491;-83
2022/07/09 03:46:27;;;;;;;6.70;5.10;;;17.90;99.90;;;;;;5088812;28;20545;-82
2022/07/09 03:48:54;;;;;;;5.50;4.80;;;17.90;99.90;;;;;;5091069;28;20990;-81
2022/07/09 03:51:20;;;;;;;6.40;5.20;;;18.00;99.90;;;;;;5088328;28;20498;-83
2022/07/09 03:53:49;;;;;;;9.00;5.37;;;18.00;99.90;;;;;;5087885;28;20489;-82
2022/07/09 03:56:16;;;;;;;7.93;5.00;;;18.00;99.90;;;;;;5090077;28;20489;-82
2022/07/09 03:58:43;;;;;;;6.03;4.50;;;18.10;99.90;;;;;;5107977;28;20461;-82
2022/07/09 04:01:10;;;;;;;5.27;3.73;;;18.20;99.90;;;;;;5095564;28;20485;-80
2022/07/09 04:03:36;;;;;;;7.60;4.80;;;18.10;99.90;;;;;;5086408;28;20448;-80
2022/07/09 04:06:04;;;;;;;5.53;4.30;;;18.20;99.90;;;;;;5086576;28;20488;-82
2022/07/09 04:08:31;;;;;;;5.40;4.70;;;18.30;99.90;;;;;;5068126;28;20518;-83
2022/07/09 04:10:59;;;;;;;10.70;5.27;;;18.30;99.90;;;;;;5086921;28;20483;-81
2022/07/09 04:13:26;;;;;;;9.27;5.40;;;18.40;99.90;;;;;;5107518;28;20444;-82
2022/07/09 04:15:53;;;;;;;7.40;4.57;;;18.40;99.90;;;;;;5088290;28;20579;-83
2022/07/09 04:18:20;;;;;;;8.03;4.40;;;18.40;99.90;;;;;;5087692;28;20444;-85
2022/07/09 04:20:46;;;;;;;6.93;4.87;;;18.40;99.90;;;;;;5095716;28;20458;-85
2022/07/09 04:23:13;;;;;;;6.53;4.37;;;18.40;99.90;;;;;;5087291;28;20549;-82
2022/07/09 04:25:40;;;;;;;8.07;5.00;;;18.50;99.90;;;;;;5104492;28;20471;-84
2022/07/09 04:28:08;;;;;;;8.40;5.23;;;18.50;99.90;;;;;;5098673;28;21003;-83
2022/07/09 04:30:35;;;;;;;6.53;5.00;;;18.50;99.90;;;;;;5080285;28;20497;-82
2022/07/09 04:33:02;;;;;;;6.83;5.43;;;18.50;99.90;;;;;;5080058;28;20474;-82
2022/07/09 04:35:29;;;;;;;8.80;5.83;;;18.60;99.90;;;;;;5097004;28;20510;-82
2022/07/09 04:37:56;;;;;;;6.30;4.87;;;18.50;99.90;;;;;;5086795;28;20954;-83
2022/07/09 04:40:23;;;;;;;5.90;5.20;;;18.60;99.90;;;;;;5096101;28;20542;-83
2022/07/09 04:42:49;;;;;;;11.27;5.40;;;18.70;99.90;;;;;;5086566;28;20466;-82
2022/07/09 04:45:18;;;;;;;10.50;5.40;;;18.70;99.90;;;;;;5076428;28;20545;-82
2022/07/09 04:47:45;;;;;;;7.33;5.97;;;18.70;99.90;;;;;;5088305;28;20481;-83
2022/07/09 04:50:12;;;;;;;6.87;5.27;;;18.70;99.90;;;;;;5105115;28;20480;-82
2022/07/09 04:52:39;;;;;;;5.27;4.77;;;18.80;99.90;;;;;;5114447;28;20465;-81
2022/07/09 04:55:07;;;;;;;7.80;4.77;;;18.70;99.90;;;;;;5101802;28;20457;-82
2022/07/09 04:57:35;;;;;;;6.07;4.90;;;18.70;99.90;;;;;;5099563;28;20513;-82
2022/07/09 05:00:02;;;;;;;10.10;7.30;;;18.70;99.90;;;;;;5088361;28;20510;-83
2022/07/09 05:02:31;;;;;;;7.47;5.40;;;18.70;99.90;;;;;;5096292;28;20488;-83
2022/07/09 05:04:57;;;;;;;6.70;5.50;;;18.70;99.90;;;;;;5090052;28;20536;-82
2022/07/09 05:07:24;;;;;;;6.57;5.87;;;18.70;99.90;;;;;;5093454;28;20546;-82
2022/07/09 05:09:51;;;;;;;9.13;6.27;;;18.70;99.90;;;;;;5088419;28;20508;-81
2022/07/09 05:12:18;;;;;;;6.77;5.50;;;18.70;99.90;;;;;;5056398;28;21062;-81
2022/07/09 05:14:45;;;;;;;8.00;4.90;;;18.70;99.90;;;;;;5062201;28;20540;-82
2022/07/09 05:17:12;;;;;;;7.37;6.20;;;18.70;99.90;;;;;;5096493;28;21078;-83
2022/07/09 05:19:40;;;;;;;8.87;5.43;;;18.70;99.90;;;;;;5092656;28;20954;-81
2022/07/09 05:22:07;;;;;;;9.90;6.30;;;18.70;99.90;;;;;;5075823;28;20506;-82
2022/07/09 05:24:34;;;;;;;8.33;6.30;;;18.80;99.90;;;;;;5076034;28;20984;-82
2022/07/09 05:27:01;;;;;;;7.50;5.87;;;18.80;99.90;;;;;;5086971;28;20504;-81
2022/07/09 05:29:28;;;;;;;5.80;5.20;;;18.90;99.90;;;;;;5056104;28;20458;-84
2022/07/09 05:31:54;;;;;;;6.80;5.17;;;18.90;99.90;;;;;;5095471;28;20478;-82
2022/07/09 05:34:21;;;;;;;7.13;5.73;;;19.00;99.90;;;;;;5092395;28;20957;-83
2022/07/09 05:36:51;;;;;;;14.47;7.93;;;19.00;99.90;;;;;;5090982;28;20489;-81
2022/07/09 05:39:18;;;;;;;7.77;5.80;;;19.10;99.90;;;;;;5075123;28;20507;-82
2022/07/09 05:41:45;;;;;;;7.83;5.17;;;19.20;99.90;;;;;;5085025;28;20491;-84
2022/07/09 05:44:12;;;;;;;5.77;4.10;;;19.30;99.90;;;;;;5083643;28;20444;-83
2022/07/09 05:46:38;;;;;;;10.50;4.80;;;19.30;99.90;;;;;;5070593;28;20451;-85
2022/07/09 05:49:05;;;;;;;6.83;5.30;;;19.40;99.90;;;;;;5105714;28;20885;-84
2022/07/09 05:51:32;;;;;;;9.77;5.20;;;19.50;99.90;;;;;;5105820;28;21000;-84
2022/07/09 05:54:00;;;;;;;8.40;4.83;;;19.60;99.90;;;;;;5085521;28;20454;-83
2022/07/09 05:56:27;;;;;;;4.97;3.20;;;19.60;99.90;;;;;;5087361;28;20489;-84
2022/07/09 05:58:54;;;;;;;3.57;2.87;;;19.60;99.90;;;;;;5107974;28;20814;-83
2022/07/09 06:01:21;;;;;;;7.10;2.87;;;19.60;99.90;;;;;;5092873;28;20482;-83
2022/07/09 06:03:48;;;;;;;4.73;3.37;;;19.60;99.90;;;;;;5108307;28;20460;-83
2022/07/09 06:06:15;;;;;;;4.20;2.50;;;19.50;99.90;;;;;;5098721;28;20461;-84
2022/07/09 06:08:42;;;;;;;3.30;2.77;;;19.60;99.90;;;;;;5086097;28;20462;-83
2022/07/09 06:11:11;;;;;;;3.60;2.90;;;19.60;99.90;;;;;;5086787;28;20474;-85
2022/07/09 06:13:38;;;;;;;7.80;4.27;;;19.60;99.90;;;;;;5086383;28;20486;-84
2022/07/09 06:16:05;;;;;;;5.80;3.30;;;19.50;99.90;;;;;;5080020;28;20593;-84
2022/07/09 06:18:33;;;;;;;6.37;3.50;;;19.50;99.90;;;;;;5063047;28;20479;-85
2022/07/09 06:21:01;;;;;;;4.20;3.17;;;19.40;99.90;;;;;;5069190;28;20454;-85
2022/07/09 06:23:28;;;;;;;4.87;3.40;;;19.40;99.90;;;;;;5103144;28;20852;-85
2022/07/09 06:25:55;;;;;;;5.10;3.63;;;19.40;99.90;;;;;;5099573;28;20499;-86
2022/07/09 06:28:23;;;;;;;4.03;2.63;;;19.50;99.90;;;;;;5068567;28;20479;-86
2022/07/09 06:30:50;;;;;;;8.37;3.47;;;19.60;99.90;;;;;;5063616;28;20472;-85
2022/07/09 06:33:17;;;;;;;5.00;3.03;;;19.70;99.90;;;;;;5102129;28;20453;-85
2022/07/09 06:35:44;;;;;;;4.27;2.60;;;19.80;99.90;;;;;;5102627;28;20485;-85
2022/07/09 06:38:11;;;;;;;7.67;2.77;;;19.90;99.90;;;;;;5082335;28;20462;-85
2022/07/09 06:40:38;;;;;;;7.90;3.07;;;20.00;99.90;;;;;;5089251;28;20455;-85
2022/07/09 06:43:05;;;;;;;6.40;3.13;;;20.00;99.90;;;;;;5083169;28;21049;-84
2022/07/09 06:45:33;;;;;;;5.90;3.37;;;20.00;99.90;;;;;;5092212;28;20457;-86
2022/07/09 06:48:00;;;;;;;5.20;3.53;;;20.20;99.90;;;;;;5088573;28;20454;-84
2022/07/09 06:50:27;;;;;;;8.27;3.60;;;20.20;99.90;;;;;;5091340;28;20488;-84
2022/07/09 06:52:54;;;;;;;3.70;2.57;;;20.20;99.90;;;;;;5083862;28;20501;-85
2022/07/09 06:55:21;;;;;;;4.97;3.60;;;20.20;99.90;;;;;;5089727;28;20537;-86
2022/07/09 06:57:48;;;;;;;4.90;3.53;;;20.30;99.90;;;;;;5095384;28;20850;-86
2022/07/09 07:00:15;;;;;;;5.13;3.40;;;20.40;99.90;;;;;;5092439;28;20480;-84
2022/07/09 07:02:43;;;;;;;5.40;2.60;;;20.50;99.90;;;;;;5080399;28;20489;-85
2022/07/09 07:05:10;;;;;;;3.13;2.17;;;20.50;99.90;;;;;;5093748;28;20489;-86
2022/07/09 07:07:37;;;;;;;4.63;2.60;;;20.60;99.90;;;;;;5083337;28;20479;-86
2022/07/09 07:10:05;;;;;;;4.63;2.37;;;20.60;99.90;;;;;;5087272;28;20428;-89
2022/07/09 07:12:31;;;;;;;3.00;2.00;;;20.70;99.90;;;;;;5098813;28;20475;-84
2022/07/09 07:14:59;;;;;;;3.10;1.87;;;20.60;99.90;;;;;;5098978;28;20485;-86
2022/07/09 07:17:25;;;;;;;3.47;2.00;;;20.70;99.90;;;;;;5081926;28;20525;-85
2022/07/09 07:19:54;;;;;;;2.50;1.57;;;20.80;99.90;;;;;;5074735;28;20470;-85
2022/07/09 07:22:21;;;;;;;6.63;2.20;;;20.80;99.90;;;;;;5084457;28;20554;-85
2022/07/09 07:24:47;;;;;;;3.77;1.80;;;20.90;99.90;;;;;;5070604;28;20542;-85
2022/07/09 07:27:14;;;;;;;3.30;1.70;;;21.00;99.90;;;;;;5070893;28;20452;-87
2022/07/09 07:29:41;;;;;;;5.20;1.77;;;21.20;99.90;;;;;;5078615;28;20452;-85
2022/07/09 07:32:09;;;;;;;3.00;1.60;;;21.50;99.90;;;;;;5075125;28;21042;-84
2022/07/09 07:34:36;;;;;;;2.53;1.50;;;21.60;99.90;;;;;;5079848;28;20498;-85
2022/07/09 07:37:05;;;;;;;5.20;2.57;;;21.60;99.90;;;;;;5102469;28;20509;-85
2022/07/09 07:39:32;;;;;;;3.73;1.50;;;21.50;99.90;;;;;;5105232;28;20516;-84
2022/07/09 07:41:59;;;;;;;3.90;2.20;;;21.40;99.90;;;;;;5105647;28;20474;-82
2022/07/09 07:44:27;;;;;;;7.33;3.47;;;21.40;99.90;;;;;;5105009;28;20946;-84
2022/07/09 07:46:54;;;;;;;4.00;2.07;;;21.50;99.90;;;;;;5085748;28;20463;-84
2022/07/09 07:49:21;;;;;;;4.43;1.73;;;21.50;99.90;;;;;;5072913;28;20479;-84
2022/07/09 07:51:48;;;;;;;3.77;2.43;;;21.60;99.90;;;;;;5085870;28;20479;-83
2022/07/09 07:54:17;;;;;;;7.30;2.67;;;21.60;99.90;;;;;;5084032;28;21005;-83
2022/07/09 07:56:43;;;;;;;4.07;2.03;;;21.60;99.90;;;;;;5081938;28;20478;-82
2022/07/09 07:59:10;;;;;;;3.73;1.87;;;21.60;99.90;;;;;;5081890;28;20470;-81
2022/07/09 08:01:37;;;;;;;4.80;2.17;;;21.60;99.90;;;;;;5097426;28;21062;-81
2022/07/09 08:04:04;;;;;;;4.60;1.70;;;21.80;99.90;;;;;;5100951;28;20499;-82
2022/07/09 08:06:31;;;;;;;3.53;1.60;;;22.00;99.90;;;;;;5080762;28;20483;-81
2022/07/09 08:08:58;;;;;;;3.30;1.53;;;22.20;99.90;;;;;;5081098;28;20486;-80
2022/07/09 08:11:26;;;;;;;5.00;1.90;;;22.30;99.90;;;;;;5081813;28;20482;-83
2022/07/09 08:13:53;;;;;;;4.23;1.90;;;22.30;99.90;;;;;;5080438;28;20478;-82
2022/07/09 08:16:20;;;;;;;2.50;1.40;;;22.50;99.90;;;;;;5082009;28;20890;-81
2022/07/09 08:18:47;;;;;;;3.00;1.77;;;22.70;99.90;;;;;;5083084;28;20447;-82
2022/07/09 08:21:14;;;;;;;4.70;1.80;;;22.90;99.90;;;;;;5088867;28;20455;-81
2022/07/09 08:23:55;;;;;;;3.50;2.10;;;23.10;99.90;;;;;;5080473;28;20470;-82
2022/07/09 08:26:24;;;;;;;4.97;2.23;;;23.30;99.90;;;;;;5080179;28;20477;-81
2022/07/09 08:28:52;;;;;;;3.53;1.83;;;23.70;99.90;;;;;;5080542;28;20489;-82
2022/07/09 08:31:21;;;;;;;4.37;1.90;;;23.90;99.90;;;;;;5080328;28;20936;-83
2022/07/09 08:33:48;;;;;;;4.23;1.73;;;23.90;99.90;;;;;;5079976;28;20479;-81
2022/07/09 08:36:15;;;;;;;3.10;1.37;;;23.80;99.90;;;;;;5095098;28;20486;-81
2022/07/09 08:38:42;;;;;;;3.20;1.40;;;23.80;99.90;;;;;;5087328;28;20482;-82
2022/07/09 08:41:09;;;;;;;5.50;1.63;;;23.80;99.90;;;;;;5059364;28;20471;-81
2022/07/09 08:43:38;;;;;;;3.90;1.60;;;23.90;99.90;;;;;;5059149;28;20456;-82
2022/07/09 08:46:06;;;;;;;3.90;1.60;;;23.90;99.90;;;;;;5098513;28;20465;-82
2022/07/09 08:48:34;;;;;;;2.67;1.30;;;24.10;99.90;;;;;;5101200;28;20469;-81
2022/07/09 08:51:02;;;;;;;4.30;1.73;;;24.40;99.90;;;;;;5100525;28;20469;-82
2022/07/09 08:53:29;;;;;;;2.93;1.40;;;24.60;99.90;;;;;;5101439;28;20442;-81
2022/07/09 08:55:57;;;;;;;4.23;1.63;;;24.70;99.90;;;;;;5069185;28;21017;-81
2022/07/09 08:58:24;;;;;;;3.27;1.20;;;24.60;99.90;;;;;;5060959;28;20923;-80
2022/07/09 09:00:51;;;;;;;2.50;1.20;;;24.50;99.90;;;;;;5073034;28;20492;-82
2022/07/09 09:03:20;;;;;;;3.47;1.30;;;24.10;99.90;;;;;;5059184;28;20925;-81
2022/07/09 09:06:01;;;;;;;2.73;0.90;;;24.00;99.90;;;;;;5087857;28;20470;-82
2022/07/09 09:08:28;;;;;;;3.00;1.20;;;24.00;99.90;;;;;;5101684;28;20533;-83
2022/07/09 09:10:55;;;;;;;2.60;1.00;;;24.10;99.90;;;;;;5080326;28;20495;-83
2022/07/09 09:13:22;;;;;;;2.40;1.20;;;24.10;99.90;;;;;;5080465;28;20459;-79
2022/07/09 09:15:49;;;;;;;3.20;1.10;;;24.00;99.90;;;;;;5087335;28;20442;-82
2022/07/09 09:18:16;;;;;;;3.03;1.07;;;24.10;99.90;;;;;;5069262;28;20486;-82
2022/07/09 09:20:47;;;;;;;3.17;1.40;;;24.20;99.90;;;;;;5070099;28;21006;-80
2022/07/09 09:23:17;;;;;;;3.33;1.30;;;24.60;99.90;;;;;;5073673;28;20918;-81
2022/07/09 09:25:47;;;;;;;3.13;1.70;;;24.90;99.90;;;;;;5074594;28;20447;-78
2022/07/09 09:28:14;;;;;;;8.27;3.50;;;24.80;99.90;;;;;;5079059;28;20481;-80
2022/07/09 09:30:44;;;;;;;3.97;1.87;;;24.80;99.90;;;;;;5080783;28;20558;-79
2022/07/09 09:33:14;;;;;;;7.23;2.00;;;24.60;99.90;;;;;;5074126;28;20562;-78
2022/07/09 09:35:45;;;;;;;7.07;2.40;;;24.60;99.90;;;;;;5074584;28;20847;-77
2022/07/09 09:38:14;;;;;;;4.87;2.27;;;24.60;99.90;;;;;;5069879;28;20479;-79
2022/07/09 09:40:46;;;;;;;3.90;1.63;;;24.70;99.90;;;;;;5065755;28;20443;-79
2022/07/09 09:43:18;;;;;;;2.60;1.10;;;24.60;99.90;;;;;;5063971;28;20454;-79
2022/07/09 09:45:48;;;;;;;4.27;1.27;;;24.60;99.90;;;;;;5055419;28;20638;-81
2022/07/09 09:48:18;;;;;;;2.53;1.27;;;24.60;99.90;;;;;;5076949;28;20442;-78
2022/07/09 09:50:48;;;;;;;2.13;1.03;;;24.40;99.90;;;;;;5069928;28;20959;-80
2022/07/09 09:53:17;;;;;;;3.07;1.50;;;24.40;99.90;;;;;;5066230;28;20444;-79
2022/07/09 09:55:46;;;;;;;3.03;1.00;;;24.50;99.90;;;;;;5071813;28;20522;-79
2022/07/09 09:58:14;;;;;;;2.90;1.37;;;24.60;99.90;;;;;;5073885;28;20577;-79
2022/07/09 10:00:42;;;;;;;3.50;1.73;;;24.70;99.90;;;;;;5076704;28;20458;-80
2022/07/09 10:03:12;;;;;;;3.37;1.23;;;24.60;99.90;;;;;;5073482;28;21020;-80
2022/07/09 10:05:40;;;;;;;3.13;1.20;;;24.70;99.90;;;;;;5056417;28;20550;-79
2022/07/09 10:08:07;;;;;;;4.33;1.20;;;24.60;99.90;;;;;;5078294;28;20485;-81
2022/07/09 10:10:36;;;;;;;2.83;0.97;;;24.70;99.90;;;;;;5069368;28;20468;-78
2022/07/09 10:13:03;;;;;;;3.23;1.10;;;24.60;99.90;;;;;;5073892;28;20550;-79
2022/07/09 10:15:34;;;;;;;2.97;1.23;;;24.60;99.90;;;;;;5067236;28;20531;-82
2022/07/09 10:18:11;;;;;;;4.30;1.67;;;24.60;99.90;;;;;;5076701;28;20534;-80
2022/07/09 10:20:38;;;;;;;4.40;1.40;;;24.40;99.90;;;;;;5072004;28;20484;-81
2022/07/09 10:23:05;;;;;;;3.90;1.30;;;24.40;99.90;;;;;;5087051;28;20480;-81
2022/07/09 10:25:43;;;;;;;2.50;1.03;;;24.40;99.90;;;;;;5071455;28;20448;-79
2022/07/09 10:28:17;;;;;;;2.73;1.00;;;24.50;99.90;;;;;;5067480;28;20454;-80
2022/07/09 10:30:44;;;;;;;2.00;0.87;;;24.60;99.90;;;;;;5070648;28;20469;-80
2022/07/09 10:33:13;;;;;;;2.40;1.10;;;24.90;99.90;;;;;;5079211;28;20557;-80
2022/07/09 10:35:41;;;;;;;4.17;1.47;;;25.00;99.90;;;;;;5078335;28;20459;-80
2022/07/09 10:38:09;;;;;;;3.50;1.30;;;25.00;99.90;;;;;;5078083;28;20845;-81
2022/07/09 10:40:40;;;;;;;3.60;1.47;;;24.90;99.90;;;;;;5079314;28;20977;-77
2022/07/09 10:43:07;;;;;;;3.50;1.20;;;24.90;99.90;;;;;;5078253;28;20562;-80
2022/07/09 10:45:40;;;;;;;3.93;1.80;;;24.90;99.90;;;;;;5080955;28;20887;-79
2022/07/09 10:48:09;;;;;;;4.30;1.83;;;24.80;99.90;;;;;;5079932;28;20510;-81
2022/07/09 10:50:40;;;;;;;6.80;1.80;;;24.70;99.90;;;;;;5086909;28;20545;-79
2022/07/09 10:53:08;;;;;;;5.17;1.80;;;24.50;99.90;;;;;;5098614;28;20508;-81
2022/07/09 10:55:35;;;;;;;4.70;1.70;;;24.40;99.90;;;;;;5075909;28;20954;-79
2022/07/09 10:58:07;;;;;;;6.20;2.10;;;24.00;99.90;;;;;;5066637;28;20575;-81
2022/07/09 11:00:35;;;;;;;3.40;1.90;;;24.10;99.90;;;;;;5073529;28;20541;-80
2022/07/09 11:03:05;;;;;;;5.80;1.90;;;24.10;99.90;;;;;;5099057;28;20503;-80
2022/07/09 11:05:34;;;;;;;3.90;1.60;;;24.20;99.90;;;;;;5093784;28;20549;-80
2022/07/09 11:08:04;;;;;;;3.27;2.17;;;24.30;99.90;;;;;;5079535;28;20452;-80
2022/07/09 11:10:32;;;;;;;2.50;1.57;;;24.40;99.90;;;;;;5079985;28;20556;-80
2022/07/09 11:13:00;;;;;;;5.23;1.83;;;24.80;99.90;;;;;;5063689;28;20593;-81
2022/07/09 11:15:29;;;;;;;5.43;1.90;;;25.20;99.90;;;;;;5071590;28;20450;-80
2022/07/09 11:17:59;;;;;;;3.90;1.43;;;25.90;99.90;;;;;;5083678;28;20684;-80
2022/07/09 11:20:30;;;;;;;5.90;2.00;;;26.20;99.90;;;;;;5070263;28;20459;-81
2022/07/09 11:22:59;;;;;;;4.17;2.23;;;26.10;99.90;;;;;;5073889;28;20501;-80
2022/07/09 11:25:27;;;;;;;3.90;1.97;;;26.10;99.90;;;;;;5087284;28;20459;-80
2022/07/09 11:27:54;;;;;;;3.67;1.90;;;26.60;99.90;;;;;;5090212;28;20474;-80
2022/07/09 11:30:21;;;;;;;4.83;1.73;;;27.00;99.90;;;;;;5075788;28;20519;-82
2022/07/09 11:32:48;;;;;;;3.27;1.90;;;27.20;99.90;;;;;;5096185;28;20471;-79
2022/07/09 11:35:25;;;;;;;3.07;1.20;;;27.20;99.90;;;;;;5073912;28;20454;-79
2022/07/09 11:37:53;;;;;;;5.30;1.63;;;27.30;99.90;;;;;;5082639;28;20486;-80
2022/07/09 11:40:21;;;;;;;2.37;1.37;;;27.60;99.90;;;;;;5066672;28;20458;-81
2022/07/09 11:42:49;;;;;;;2.80;1.60;;;27.50;99.90;;;;;;5076491;28;20479;-80
2022/07/09 11:45:20;;;;;;;3.80;1.40;;;27.30;99.90;;;;;;5079863;28;20934;-81
2022/07/09 11:47:47;;;;;;;4.00;1.63;;;26.80;99.90;;;;;;5079022;28;20533;-82
2022/07/09 11:50:15;;;;;;;3.07;1.57;;;26.30;99.90;;;;;;5081187;28;20478;-82
2022/07/09 11:52:47;;;;;;;3.97;1.37;;;25.90;99.90;;;;;;5099223;28;20498;-82
2022/07/09 11:55:18;;;;;;;4.70;1.40;;;25.50;99.90;;;;;;5099805;28;20518;-82
2022/07/09 11:57:56;;;;;;;2.80;1.73;;;25.10;99.90;;;;;;5088011;28;20482;-81
2022/07/09 12:00:24;;;;;;;3.40;1.30;;;24.80;99.90;;;;;;5081601;28;20435;-81
2022/07/09 12:02:51;;;;;;;2.60;1.37;;;24.50;99.90;;;;;;5097334;28;20568;-82
2022/07/09 12:05:27;;;;;;;2.73;1.60;;;24.20;99.90;;;;;;5097648;28;20521;-82
2022/07/09 12:07:54;;;;;;;3.50;1.20;;;24.00;99.90;;;;;;5078216;28;20461;-83
2022/07/09 12:10:29;;;;;;;3.23;1.83;;;24.00;99.90;;;;;;5066433;28;20452;-80
2022/07/09 12:12:56;;;;;;;2.97;1.57;;;24.50;99.90;;;;;;5070842;28;20557;-82
2022/07/09 12:15:23;;;;;;;3.10;1.80;;;25.90;99.90;;;;;;5073753;28;20506;-81
2022/07/09 12:17:55;;;;;;;2.80;1.47;;;26.50;99.90;;;;;;5078285;28;20577;-82
2022/07/09 12:20:22;;;;;;;2.50;1.40;;;26.30;99.90;;;;;;5069694;28;20462;-82
2022/07/09 12:22:49;;;;;;;2.53;1.50;;;26.10;99.90;;;;;;5077950;28;20856;-82
2022/07/09 12:25:16;;;;;;;2.87;1.43;;;25.70;99.90;;;;;;5068395;28;20483;-80
2022/07/09 12:27:44;;;;;;;3.70;1.60;;;25.40;99.90;;;;;;5074691;28;20482;-83
2022/07/09 12:30:12;;;;;;;2.80;1.50;;;25.10;99.90;;;;;;5072987;28;20459;-80
2022/07/09 12:32:42;;;;;;;4.43;1.70;;;24.70;99.90;;;;;;5079054;28;20491;-82
2022/07/09 12:35:10;;;;;;;2.90;1.80;;;24.40;99.90;;;;;;5074272;28;20527;-84
2022/07/09 12:37:37;;;;;;;6.20;2.50;;;24.00;99.90;;;;;;5068652;28;20542;-82
2022/07/09 12:40:06;;;;;;;3.33;1.90;;;23.70;99.90;;;;;;5075809;28;20908;-81
2022/07/09 12:42:34;;;;;;;3.47;2.10;;;23.50;99.90;;;;;;5071705;28;20555;-82
2022/07/09 12:45:02;;;;;;;4.60;3.50;;;23.30;99.90;;;;;;5070423;28;20459;-81
2022/07/09 12:47:29;;;;;;;3.83;2.40;;;23.10;99.90;;;;;;5073729;28;20459;-82
2022/07/09 12:49:56;;;;;;;7.87;2.70;;;23.00;99.90;;;;;;5073861;28;20530;-82
2022/07/09 12:52:23;;;;;;;4.47;3.10;;;23.00;99.90;;;;;;5074307;28;20495;-81